Fairhaven, Washington
Current Conditions -  °F | °C
As of 4:53 AM on Sunday 21 Dec 2014 (Local Time) from KBLI Reporting Station
Clear Clear  
Wind Chill: 11°   Ceiling: Unl
Heat Index: 11°   Visibility: 10mi
Dew Point:   Wind: 6mph
Humidity: 71%   Direction: 170°S
Pressure: 29.69"   Gusts: NA
Location:  48.7531°N, 122.502°W
Report Text: KBLI 211253Z AUTO 17005KT 10SM CLR 11/06 A2969 RMK AO2 SLP061 T01060056
Loading
Personal Weather Stations






























Interactive Weather Map New forecast layout! Learn more

10-Day Weather Forecast

Advertisements
Track Severe Weather on mobile